Pagina principală
METAR-TAF:

METAR-TAF

Aeroporturi :

Stewart, Columbia Britanică, Canada

Latitudine: 55-56N, longitudine: 129-59W, elevație: 7 m

Observații meteo curente

Raportul a fost făcut în urmă cu 43 de minute, la 23:00 UTC
Vânt 7 kt de la Sud, variabil între Sud/Sud-est și Sud-vest
Temperatură 14°C
Umiditate 55%
Presiune 1007 hPa
Vizibilitate: 24.1 km
Nori fragmentați la o înălțime de 6000 picior
Total acoperit la o înălțime de 8500 picior

METAR: CZST 252300Z 19007KT 150V230 15SM BKN060 OVC085 14/05 A2974 RMK SC6AS2 SLP072

Ora: 16:43 (23:43 UTC)


TAF: lipsă

Observații și prognoze meteo pentru peste 4.000 de aeroporturi (rapoarte METAR și TAF).

Stațiile disponibile sunt reprezentate pe hartă prin puncte galbene și roșii.

Țineți indicatorul mouse-ului pe punctul dorit pentru a vedea denumirea stației.

Apoi, faceți clic pentru a vedea observațiile și prognozele meteorologice.

Pentru a schimba harta: Pentru mărire, faceți clic pe butoanele verzi cu cruce neagră; pentru micșorare, pe butonul verde cu o liniuță; pentru hărți învecinate, pe săgețile verzi.


METAR-TAF: